Time,TemperatureF,DewpointF,PressureIn,WindDirection,WindDirectionDegrees,WindSpeedMPH,WindSpeedGustMPH,Humidity,HourlyPrecipIn,Conditions,Clouds,dailyrainin,SolarRadiationWatts/m^2,SoftwareType,DateUTC
2013-02-28 00:01:00,12.0,0.0,-100.00,NNE,31,2.0,4.0,57,0.00,,,0.02,0.000000,,2013-02-28 07:01:00,
2013-02-28 00:32:00,11.0,1.0,-100.00,North,11,0.0,4.0,63,-99.99,,,0.02,0.000000,,2013-02-28 07:32:00,
2013-02-28 00:42:00,11.0,1.0,-100.00,North,11,0.0,4.0,63,-99.99,,,0.02,0.000000,,2013-02-28 07:42:00,
2013-02-28 00:52:00,11.0,1.0,-100.00,North,11,0.0,4.0,63,-99.99,,,0.02,0.000000,,2013-02-28 07:52:00,
2013-02-28 01:01:00,11.0,1.0,-100.00,North,11,0.0,4.0,63,-99.99,,,0.02,0.000000,,2013-02-28 08:01:00,
2013-02-28 01:11:00,11.0,1.0,-100.00,North,11,0.0,4.0,63,-99.99,,,0.02,0.000000,,2013-02-28 08:11:00,
2013-02-28 01:42:00,9.0,-1.0,-100.00,North,356,3.0,4.0,64,0.00,,,0.02,0.000000,,2013-02-28 08:42:00,
2013-02-28 01:53:00,9.0,-1.0,-100.00,North,356,3.0,4.0,64,0.00,,,0.02,0.000000,,2013-02-28 08:53:00,
2013-02-28 02:03:00,9.0,-1.0,-100.00,North,356,3.0,4.0,64,0.00,,,0.02,0.000000,,2013-02-28 09:03:00,
2013-02-28 02:42:00,7.0,0.0,-100.00,South,180,0.0,5.0,71,0.00,,,0.02,0.000000,,2013-02-28 09:42:00,
2013-02-28 02:52:00,7.0,0.0,-100.00,South,180,0.0,5.0,71,0.00,,,0.02,0.000000,,2013-02-28 09:52:00,
2013-02-28 03:32:00,6.0,-1.0,-100.00,South,177,1.0,4.0,71,0.00,,,0.02,0.000000,,2013-02-28 10:32:00,
2013-02-28 04:32:00,5.0,-2.0,-100.00,NNW,332,2.0,4.0,72,-99.99,,,-99.99,0.000000,,2013-02-28 11:32:00,
2013-02-28 04:42:00,5.0,-2.0,-100.00,NNW,332,2.0,4.0,72,-99.99,,,-99.99,0.000000,,2013-02-28 11:42:00,
2013-02-28 04:52:00,5.0,-2.0,-100.00,NNW,332,2.0,4.0,72,-99.99,,,-99.99,0.000000,,2013-02-28 11:52:00,
2013-02-28 05:02:00,5.0,-2.0,-100.00,NNW,332,2.0,4.0,72,-99.99,,,-99.99,0.000000,,2013-02-28 12:02:00,
2013-02-28 05:11:00,5.0,-2.0,-100.00,NNW,332,2.0,4.0,72,-99.99,,,-99.99,0.000000,,2013-02-28 12:11:00,
2013-02-28 05:32:00,5.0,-2.0,-100.00,North,6,1.0,5.0,73,0.00,,,0.02,0.000000,,2013-02-28 12:32:00,
2013-02-28 05:42:00,5.0,-2.0,-100.00,North,6,1.0,5.0,73,0.00,,,0.02,0.000000,,2013-02-28 12:42:00,
2013-02-28 05:52:00,5.0,-2.0,-100.00,North,6,1.0,5.0,73,0.00,,,0.02,0.000000,,2013-02-28 12:52:00,
2013-02-28 06:11:00,5.0,-2.0,-100.00,North,6,1.0,5.0,73,0.00,,,0.02,0.000000,,2013-02-28 13:11:00,
2013-02-28 06:32:00,3.0,-3.0,-100.00,SW,221,0.0,2.0,77,0.00,,,0.02,0.000000,,2013-02-28 13:32:00,
2013-02-28 06:42:00,3.0,-3.0,-100.00,SW,221,0.0,2.0,77,0.00,,,0.02,0.000000,,2013-02-28 13:42:00,
2013-02-28 06:52:00,3.0,-3.0,-100.00,SW,221,0.0,2.0,77,0.00,,,0.02,0.000000,,2013-02-28 13:52:00,
2013-02-28 07:01:00,3.0,-3.0,-100.00,SW,221,0.0,2.0,77,0.00,,,0.02,0.000000,,2013-02-28 14:01:00,
2013-02-28 07:11:00,3.0,-3.0,-100.00,SW,221,0.0,2.0,77,0.00,,,0.02,0.000000,,2013-02-28 14:11:00,
2013-02-28 07:32:00,5.0,-2.0,-100.00,SSW,202,2.0,4.0,72,0.00,,,0.02,16.000000,,2013-02-28 14:32:00,
2013-02-28 07:42:00,5.0,-2.0,-100.00,SSW,202,2.0,4.0,72,0.00,,,0.02,16.000000,,2013-02-28 14:42:00,
2013-02-28 07:52:00,5.0,-2.0,-100.00,SSW,202,2.0,4.0,72,0.00,,,0.02,16.000000,,2013-02-28 14:52:00,
2013-02-28 08:02:00,5.0,-2.0,-100.00,SSW,202,2.0,4.0,72,0.00,,,0.02,16.000000,,2013-02-28 15:02:00,
2013-02-28 08:11:00,5.0,-2.0,-100.00,SSW,202,2.0,4.0,72,0.00,,,0.02,16.000000,,2013-02-28 15:11:00,
2013-02-28 08:32:00,12.0,-1.0,-100.00,West,264,1.0,4.0,55,0.00,,,0.02,202.000000,,2013-02-28 15:32:00,
2013-02-28 08:42:00,12.0,-1.0,-100.00,West,264,1.0,4.0,55,0.00,,,0.02,202.000000,,2013-02-28 15:42:00,
2013-02-28 08:52:00,12.0,-1.0,-100.00,West,264,1.0,4.0,55,0.00,,,0.02,202.000000,,2013-02-28 15:52:00,
2013-02-28 09:01:00,12.0,-1.0,-100.00,West,264,1.0,4.0,55,0.00,,,0.02,202.000000,,2013-02-28 16:01:00,
2013-02-28 09:11:00,12.0,-1.0,-100.00,West,264,1.0,4.0,55,0.00,,,0.02,202.000000,,2013-02-28 16:11:00,
2013-02-28 09:32:00,18.0,0.0,-100.00,SSE,160,3.0,6.0,45,0.00,,,0.01,433.000000,,2013-02-28 16:32:00,
2013-02-28 09:43:00,18.0,0.0,-100.00,SSE,160,3.0,6.0,45,0.00,,,0.01,433.000000,,2013-02-28 16:43:00,
2013-02-28 09:52:00,18.0,0.0,-100.00,SSE,160,3.0,6.0,45,0.00,,,0.01,433.000000,,2013-02-28 16:52:00,
2013-02-28 10:02:00,18.0,0.0,-100.00,SSE,160,3.0,6.0,45,0.00,,,0.01,433.000000,,2013-02-28 17:02:00,
2013-02-28 10:11:00,18.0,0.0,-100.00,SSE,160,3.0,6.0,45,0.00,,,0.01,433.000000,,2013-02-28 17:11:00,
2013-02-28 10:42:00,25.0,2.0,-100.00,SSW,201,2.0,7.0,37,0.00,,,0.00,659.000000,,2013-02-28 17:42:00,
2013-02-28 10:52:00,25.0,2.0,-100.00,SSW,201,2.0,7.0,37,0.00,,,0.00,659.000000,,2013-02-28 17:52:00,
2013-02-28 11:02:00,25.0,2.0,-100.00,SSW,201,2.0,7.0,37,0.00,,,0.00,659.000000,,2013-02-28 18:02:00,
2013-02-28 11:11:00,25.0,2.0,-100.00,SSW,201,2.0,7.0,37,0.00,,,0.00,659.000000,,2013-02-28 18:11:00,
2013-02-28 11:42:00,28.0,3.0,-100.00,SSE,168,3.0,9.0,34,0.00,,,0.00,767.000000,,2013-02-28 18:42:00,
2013-02-28 11:52:00,28.0,3.0,-100.00,SSE,168,3.0,9.0,34,0.00,,,0.00,767.000000,,2013-02-28 18:52:00,
2013-02-28 12:02:00,28.0,3.0,-100.00,SSE,168,3.0,9.0,34,0.00,,,0.00,767.000000,,2013-02-28 19:02:00,
2013-02-28 12:11:00,28.0,3.0,-100.00,SSE,168,3.0,9.0,34,0.00,,,0.00,767.000000,,2013-02-28 19:11:00,
2013-02-28 12:42:00,36.0,7.0,-100.00,South,173,2.0,7.0,29,0.00,,,0.00,891.000000,,2013-02-28 19:42:00,
2013-02-28 12:52:00,36.0,7.0,-100.00,South,173,2.0,7.0,29,0.00,,,0.00,891.000000,,2013-02-28 19:52:00,
2013-02-28 13:01:00,36.0,7.0,-100.00,South,173,2.0,7.0,29,0.00,,,0.00,891.000000,,2013-02-28 20:01:00,
2013-02-28 13:12:00,36.0,7.0,-100.00,South,173,2.0,7.0,29,0.00,,,0.00,891.000000,,2013-02-28 20:12:00,
2013-02-28 13:32:00,36.0,6.0,-100.00,SSW,208,3.0,8.0,28,0.00,,,0.00,737.000000,,2013-02-28 20:32:00,
2013-02-28 13:42:00,36.0,6.0,-100.00,SSW,208,3.0,8.0,28,0.00,,,0.00,737.000000,,2013-02-28 20:42:00,
2013-02-28 13:52:00,36.0,6.0,-100.00,SSW,208,3.0,8.0,28,0.00,,,0.00,737.000000,,2013-02-28 20:52:00,
2013-02-28 14:02:00,36.0,6.0,-100.00,SSW,208,3.0,8.0,28,0.00,,,0.00,737.000000,,2013-02-28 21:02:00,
2013-02-28 14:11:00,36.0,6.0,-100.00,SSW,208,3.0,8.0,28,0.00,,,0.00,737.000000,,2013-02-28 21:11:00,
2013-02-28 14:32:00,36.0,8.0,-100.00,SW,232,8.0,15.0,30,0.00,,,0.00,763.000000,,2013-02-28 21:32:00,
2013-02-28 14:42:00,36.0,8.0,-100.00,SW,232,8.0,15.0,30,0.00,,,0.00,763.000000,,2013-02-28 21:42:00,
2013-02-28 14:52:00,36.0,8.0,-100.00,SW,232,8.0,15.0,30,0.00,,,0.00,763.000000,,2013-02-28 21:52:00,
2013-02-28 15:01:00,36.0,8.0,-100.00,SW,232,8.0,15.0,30,0.00,,,0.00,763.000000,,2013-02-28 22:01:00,
2013-02-28 15:11:00,36.0,8.0,-100.00,SW,232,8.0,15.0,30,0.00,,,0.00,763.000000,,2013-02-28 22:11:00,
2013-02-28 15:42:00,32.0,8.0,-100.00,SW,236,8.0,15.0,36,0.00,,,0.00,445.000000,,2013-02-28 22:42:00,
2013-02-28 15:52:00,32.0,8.0,-100.00,SW,236,8.0,15.0,36,0.00,,,0.00,445.000000,,2013-02-28 22:52:00,
2013-02-28 16:01:00,32.0,8.0,-100.00,SW,236,8.0,15.0,36,0.00,,,0.00,445.000000,,2013-02-28 23:01:00,
2013-02-28 16:11:00,32.0,8.0,-100.00,SW,236,8.0,15.0,36,0.00,,,0.00,445.000000,,2013-02-28 23:11:00,
2013-02-28 16:32:00,30.0,10.0,-100.00,WSW,239,9.0,20.0,42,0.00,,,0.00,237.000000,,2013-02-28 23:32:00,
2013-02-28 16:42:00,30.0,10.0,-100.00,WSW,239,9.0,20.0,42,0.00,,,0.00,237.000000,,2013-02-28 23:42:00,
2013-02-28 16:53:00,30.0,10.0,-100.00,WSW,239,9.0,20.0,42,0.00,,,0.00,237.000000,,2013-02-28 23:53:00,
2013-02-28 17:01:00,30.0,10.0,-100.00,WSW,239,9.0,20.0,42,0.00,,,0.00,237.000000,,2013-03-01 00:01:00,
2013-02-28 17:11:00,30.0,10.0,-100.00,WSW,239,9.0,20.0,42,0.00,,,0.00,237.000000,,2013-03-01 00:11:00,
2013-02-28 17:32:00,29.0,10.0,-100.00,WSW,244,8.0,20.0,45,0.00,,,0.00,133.000000,,2013-03-01 00:32:00,
2013-02-28 17:42:00,29.0,10.0,-100.00,WSW,244,8.0,20.0,45,0.00,,,0.00,133.000000,,2013-03-01 00:42:00,
2013-02-28 17:52:00,29.0,10.0,-100.00,WSW,244,8.0,20.0,45,0.00,,,0.00,133.000000,,2013-03-01 00:52:00,
2013-02-28 18:01:00,29.0,10.0,-100.00,WSW,244,8.0,20.0,45,0.00,,,0.00,133.000000,,2013-03-01 01:01:00,
2013-02-28 18:11:00,29.0,10.0,-100.00,WSW,244,8.0,20.0,45,0.00,,,0.00,133.000000,,2013-03-01 01:11:00,
2013-02-28 18:32:00,26.0,10.0,-100.00,SW,232,6.0,15.0,51,0.00,,,0.00,29.000000,,2013-03-01 01:32:00,
2013-02-28 18:42:00,26.0,10.0,-100.00,SW,232,6.0,15.0,51,0.00,,,0.00,29.000000,,2013-03-01 01:42:00,
2013-02-28 18:52:00,26.0,10.0,-100.00,SW,232,6.0,15.0,51,0.00,,,0.00,29.000000,,2013-03-01 01:52:00,
2013-02-28 19:01:00,26.0,10.0,-100.00,SW,232,6.0,15.0,51,0.00,,,0.00,29.000000,,2013-03-01 02:01:00,
2013-02-28 19:11:00,26.0,10.0,-100.00,SW,232,6.0,15.0,51,0.00,,,0.00,29.000000,,2013-03-01 02:11:00,
2013-02-28 19:32:00,25.0,11.0,-100.00,SW,236,4.0,14.0,55,0.00,,,0.00,0.000000,,2013-03-01 02:32:00,
2013-02-28 19:42:00,25.0,11.0,-100.00,SW,236,4.0,14.0,55,0.00,,,0.00,0.000000,,2013-03-01 02:42:00,
2013-02-28 19:52:00,25.0,11.0,-100.00,SW,236,4.0,14.0,55,0.00,,,0.00,0.000000,,2013-03-01 02:52:00,
2013-02-28 20:02:00,25.0,11.0,-100.00,SW,236,4.0,14.0,55,0.00,,,0.00,0.000000,,2013-03-01 03:02:00,
2013-02-28 20:11:00,25.0,11.0,-100.00,SW,236,4.0,14.0,55,0.00,,,0.00,0.000000,,2013-03-01 03:11:00,
2013-02-28 20:32:00,25.0,15.0,-100.00,WSW,237,5.0,13.0,66,0.00,,,0.00,0.000000,,2013-03-01 03:32:00,
2013-02-28 20:42:00,25.0,15.0,-100.00,WSW,237,5.0,13.0,66,0.00,,,0.00,0.000000,,2013-03-01 03:42:00,
2013-02-28 20:52:00,25.0,15.0,-100.00,WSW,237,5.0,13.0,66,0.00,,,0.00,0.000000,,2013-03-01 03:52:00,
2013-02-28 21:01:00,25.0,15.0,-100.00,WSW,237,5.0,13.0,66,0.00,,,0.00,0.000000,,2013-03-01 04:01:00,
2013-02-28 21:11:00,25.0,15.0,-100.00,WSW,237,5.0,13.0,66,0.00,,,0.00,0.000000,,2013-03-01 04:11:00,
2013-02-28 21:42:00,25.0,17.0,-100.00,SW,234,6.0,14.0,72,0.00,,,0.00,0.000000,,2013-03-01 04:42:00,
2013-02-28 21:52:00,25.0,17.0,-100.00,SW,234,6.0,14.0,72,0.00,,,0.00,0.000000,,2013-03-01 04:52:00,
2013-02-28 22:02:00,25.0,17.0,-100.00,SW,234,6.0,14.0,72,0.00,,,0.00,0.000000,,2013-03-01 05:02:00,
2013-02-28 22:11:00,25.0,17.0,-100.00,SW,234,6.0,14.0,72,0.00,,,0.00,0.000000,,2013-03-01 05:11:00,
2013-02-28 22:33:00,24.0,17.0,-100.00,SW,230,5.0,17.0,75,0.00,,,0.00,0.000000,,2013-03-01 05:33:00,
2013-02-28 22:42:00,24.0,17.0,-100.00,SW,230,5.0,17.0,75,0.00,,,0.00,0.000000,,2013-03-01 05:42:00,
2013-02-28 22:53:00,24.0,17.0,-100.00,SW,230,5.0,17.0,75,0.00,,,0.00,0.000000,,2013-03-01 05:53:00,
2013-02-28 23:02:00,24.0,17.0,-100.00,SW,230,5.0,17.0,75,0.00,,,0.00,0.000000,,2013-03-01 06:02:00,
2013-02-28 23:11:00,24.0,17.0,-100.00,SW,230,5.0,17.0,75,0.00,,,0.00,0.000000,,2013-03-01 06:11:00,
2013-02-28 23:32:00,24.0,18.0,-100.00,South,174,7.0,12.0,77,0.00,,,0.00,0.000000,,2013-03-01 06:32:00,
2013-02-28 23:42:00,24.0,18.0,-100.00,South,174,7.0,12.0,77,0.00,,,0.00,0.000000,,2013-03-01 06:42:00,
2013-02-28 23:53:00,24.0,18.0,-100.00,South,174,7.0,12.0,77,0.00,,,0.00,0.000000,,2013-03-01 06:53:00,